ENZ225 GCXO-GCRR
Flight info
| Callsign | ENZ225 |
|---|---|
| Flight time | 0h 31m |
| Altitude | 16000 |
| Route | LARYS |
| Aircraft | RJ1H/M-SDFGIRWY/LB1 |
Departure
| Time | 2026-04-17 08:30 |
|---|---|
| Airport | Tenerife Norte-Ciudad de La Laguna Airport (GCXO) |
Arrival
| Time | 2026-04-17 09:01 |
|---|---|
| Airport | César Manrique-Lanzarote Airport (GCRR) |
| Time | Latitude | Longitude | Altitude | Speed | Heading |
|---|---|---|---|---|---|
| 2026-04-17 08:26 | 28.48466 | -16.34409 | 2061 ft | 18 kts | 111° |
| 2026-04-17 08:27 | 28.48415 | -16.34256 | 2061 ft | 23 kts | 111° |
| 2026-04-17 08:27 | 28.48355 | -16.34077 | 2061 ft | 26 kts | 110° |
| 2026-04-17 08:27 | 28.48287 | -16.33868 | 2058 ft | 30 kts | 110° |
| 2026-04-17 08:27 | 28.48209 | -16.33628 | 2053 ft | 35 kts | 111° |
| 2026-04-17 08:28 | 28.48118 | -16.33353 | 2051 ft | 40 kts | 110° |
| 2026-04-17 08:28 | 28.48015 | -16.33043 | 2037 ft | 44 kts | 111° |
| 2026-04-17 08:28 | 28.47914 | -16.32738 | 2018 ft | 32 kts | 110° |
| 2026-04-17 08:28 | 28.47812 | -16.32549 | 2012 ft | 23 kts | 151° |
| 2026-04-17 08:29 | 28.47741 | -16.32580 | 2012 ft | 9 kts | 297° |
| 2026-04-17 08:29 | 28.47798 | -16.32752 | 2017 ft | 54 kts | 290° |
| 2026-04-17 08:29 | 28.48010 | -16.33385 | 2045 ft | 115 kts | 291° |
| 2026-04-17 08:29 | 28.48361 | -16.34418 | 2062 ft | 164 kts | 292° |
| 2026-04-17 08:30 | 28.48789 | -16.35635 | 2531 ft | 165 kts | 292° |
| 2026-04-17 08:30 | 28.49217 | -16.36879 | 3092 ft | 172 kts | 291° |
| 2026-04-17 08:30 | 28.49909 | -16.38055 | 3454 ft | 190 kts | 323° |
| 2026-04-17 08:30 | 28.51151 | -16.38471 | 4018 ft | 189 kts | 8° |
| 2026-04-17 08:31 | 28.52319 | -16.37807 | 4492 ft | 195 kts | 39° |
| 2026-04-17 08:31 | 28.53387 | -16.36936 | 5242 ft | 183 kts | 38° |
| 2026-04-17 08:31 | 28.54284 | -16.35867 | 5601 ft | 194 kts | 64° |
| 2026-04-17 08:31 | 28.54816 | -16.34405 | 5870 ft | 208 kts | 74° |
| 2026-04-17 08:32 | 28.55309 | -16.32804 | 6101 ft | 220 kts | 77° |
| 2026-04-17 08:32 | 28.55344 | -16.31077 | 6349 ft | 225 kts | 109° |
| 2026-04-17 08:32 | 28.54819 | -16.29287 | 6511 ft | 254 kts | 114° |
| 2026-04-17 08:32 | 28.54166 | -16.27279 | 6650 ft | 286 kts | 112° |
| 2026-04-17 08:33 | 28.53962 | -16.24914 | 6815 ft | 321 kts | 85° |
| 2026-04-17 08:33 | 28.54533 | -16.22367 | 7027 ft | 343 kts | 77° |
| 2026-04-17 08:33 | 28.55199 | -16.19763 | 7661 ft | 330 kts | 76° |
| 2026-04-17 08:33 | 28.55844 | -16.17365 | 9085 ft | 305 kts | 77° |
| 2026-04-17 08:34 | 28.56442 | -16.15167 | 10339 ft | 274 kts | 77° |
| 2026-04-17 08:34 | 28.56992 | -16.13037 | 10563 ft | 297 kts | 78° |
| 2026-04-17 08:34 | 28.57579 | -16.10652 | 10771 ft | 321 kts | 77° |
| 2026-04-17 08:34 | 28.58194 | -16.08139 | 11027 ft | 339 kts | 77° |
| 2026-04-17 08:35 | 28.58833 | -16.05491 | 11287 ft | 354 kts | 77° |
| 2026-04-17 08:35 | 28.59475 | -16.02779 | 11542 ft | 365 kts | 77° |
| 2026-04-17 08:35 | 28.60138 | -15.99978 | 11798 ft | 367 kts | 76° |
| 2026-04-17 08:35 | 28.60812 | -15.97171 | 12042 ft | 368 kts | 76° |
| 2026-04-17 08:36 | 28.61476 | -15.94353 | 12292 ft | 369 kts | 76° |
| 2026-04-17 08:36 | 28.62138 | -15.91522 | 12543 ft | 371 kts | 76° |
| 2026-04-17 08:36 | 28.62817 | -15.88683 | 12798 ft | 373 kts | 75° |
| 2026-04-17 08:36 | 28.63498 | -15.85831 | 13046 ft | 374 kts | 75° |
| 2026-04-17 08:37 | 28.64183 | -15.82944 | 13306 ft | 381 kts | 75° |
| 2026-04-17 08:37 | 28.64869 | -15.80010 | 13567 ft | 385 kts | 75° |
| 2026-04-17 08:37 | 28.65549 | -15.77062 | 13826 ft | 386 kts | 75° |
| 2026-04-17 08:37 | 28.66246 | -15.74107 | 14064 ft | 387 kts | 75° |
| 2026-04-17 08:38 | 28.66950 | -15.71150 | 14299 ft | 388 kts | 75° |
| 2026-04-17 08:38 | 28.67662 | -15.68177 | 14533 ft | 390 kts | 74° |
| 2026-04-17 08:38 | 28.68363 | -15.65191 | 14772 ft | 391 kts | 75° |
| 2026-04-17 08:38 | 28.69048 | -15.62191 | 15001 ft | 392 kts | 75° |
| 2026-04-17 08:39 | 28.69752 | -15.59185 | 15241 ft | 393 kts | 75° |
| 2026-04-17 08:39 | 28.70464 | -15.56177 | 15480 ft | 394 kts | 75° |
| 2026-04-17 08:39 | 28.71181 | -15.53156 | 15722 ft | 396 kts | 75° |
| 2026-04-17 08:39 | 28.71887 | -15.50118 | 15931 ft | 400 kts | 75° |
| 2026-04-17 08:40 | 28.72581 | -15.47083 | 16025 ft | 389 kts | 75° |
| 2026-04-17 08:40 | 28.73276 | -15.44128 | 16043 ft | 386 kts | 75° |
| 2026-04-17 08:40 | 28.73973 | -15.41162 | 16054 ft | 389 kts | 75° |
| 2026-04-17 08:40 | 28.74670 | -15.38192 | 16055 ft | 387 kts | 75° |
| 2026-04-17 08:41 | 28.75345 | -15.35220 | 16061 ft | 388 kts | 75° |
| 2026-04-17 08:41 | 28.76031 | -15.32248 | 16055 ft | 388 kts | 75° |
| 2026-04-17 08:41 | 28.76728 | -15.29273 | 16060 ft | 387 kts | 75° |
| 2026-04-17 08:41 | 28.77422 | -15.26308 | 16059 ft | 387 kts | 75° |
| 2026-04-17 08:42 | 28.78099 | -15.23347 | 16057 ft | 386 kts | 75° |
| 2026-04-17 08:42 | 28.78768 | -15.20373 | 16059 ft | 388 kts | 75° |
| 2026-04-17 08:42 | 28.79456 | -15.17404 | 16062 ft | 386 kts | 75° |
| 2026-04-17 08:42 | 28.80147 | -15.14439 | 16062 ft | 388 kts | 75° |
| 2026-04-17 08:43 | 28.80841 | -15.11465 | 16062 ft | 388 kts | 75° |
| 2026-04-17 08:43 | 28.81518 | -15.08489 | 16061 ft | 388 kts | 75° |
| 2026-04-17 08:43 | 28.82192 | -15.05498 | 16062 ft | 389 kts | 75° |
| 2026-04-17 08:43 | 28.82882 | -15.02521 | 16062 ft | 388 kts | 75° |
| 2026-04-17 08:44 | 28.83566 | -14.99579 | 16059 ft | 390 kts | 75° |
| 2026-04-17 08:44 | 28.84246 | -14.96591 | 16059 ft | 388 kts | 75° |
| 2026-04-17 08:44 | 28.84912 | -14.93608 | 16061 ft | 389 kts | 75° |
| 2026-04-17 08:44 | 28.85592 | -14.90625 | 16062 ft | 389 kts | 75° |
| 2026-04-17 08:45 | 28.86273 | -14.87649 | 16065 ft | 388 kts | 75° |
| 2026-04-17 08:45 | 28.86922 | -14.84643 | 16065 ft | 390 kts | 78° |
| 2026-04-17 08:45 | 28.87361 | -14.81606 | 16063 ft | 389 kts | 82° |
| 2026-04-17 08:45 | 28.87641 | -14.78533 | 16060 ft | 391 kts | 84° |
| 2026-04-17 08:46 | 28.87844 | -14.75444 | 16062 ft | 389 kts | 86° |
| 2026-04-17 08:46 | 28.88011 | -14.72368 | 16062 ft | 390 kts | 86° |
| 2026-04-17 08:46 | 28.88175 | -14.69275 | 16063 ft | 391 kts | 86° |
| 2026-04-17 08:46 | 28.88352 | -14.66189 | 16063 ft | 388 kts | 86° |
| 2026-04-17 08:47 | 28.88532 | -14.63110 | 16064 ft | 390 kts | 86° |
| 2026-04-17 08:47 | 28.88715 | -14.60016 | 16060 ft | 390 kts | 85° |
| 2026-04-17 08:47 | 28.88923 | -14.56937 | 16055 ft | 389 kts | 85° |
| 2026-04-17 08:47 | 28.89118 | -14.53853 | 16058 ft | 390 kts | 85° |
| 2026-04-17 08:48 | 28.89326 | -14.50771 | 16046 ft | 386 kts | 85° |
| 2026-04-17 08:48 | 28.89514 | -14.47766 | 15638 ft | 375 kts | 85° |
| 2026-04-17 08:48 | 28.89684 | -14.44821 | 15167 ft | 370 kts | 86° |
| 2026-04-17 08:48 | 28.89850 | -14.41918 | 14707 ft | 365 kts | 86° |
| 2026-04-17 08:49 | 28.90031 | -14.39041 | 14259 ft | 362 kts | 85° |
| 2026-04-17 08:49 | 28.90220 | -14.36188 | 13807 ft | 358 kts | 85° |
| 2026-04-17 08:49 | 28.90392 | -14.33369 | 13306 ft | 355 kts | 86° |
| 2026-04-17 08:49 | 28.90570 | -14.30573 | 12819 ft | 352 kts | 86° |
| 2026-04-17 08:50 | 28.90753 | -14.27795 | 12340 ft | 350 kts | 86° |
| 2026-04-17 08:50 | 28.90924 | -14.25035 | 11867 ft | 347 kts | 87° |
| 2026-04-17 08:50 | 28.91101 | -14.22296 | 11401 ft | 345 kts | 87° |
| 2026-04-17 08:50 | 28.91267 | -14.19574 | 10936 ft | 343 kts | 88° |
| 2026-04-17 08:51 | 28.91421 | -14.16863 | 10488 ft | 342 kts | 88° |
| 2026-04-17 08:51 | 28.91581 | -14.14201 | 10048 ft | 339 kts | 88° |
| 2026-04-17 08:51 | 28.91747 | -14.11571 | 9571 ft | 315 kts | 88° |
| 2026-04-17 08:51 | 28.91820 | -14.09203 | 9010 ft | 289 kts | 99° |
| 2026-04-17 08:52 | 28.91367 | -14.06916 | 8412 ft | 299 kts | 109° |
| 2026-04-17 08:52 | 28.90726 | -14.04652 | 7875 ft | 300 kts | 112° |
| 2026-04-17 08:52 | 28.90012 | -14.02421 | 7337 ft | 299 kts | 114° |
| 2026-04-17 08:52 | 28.89256 | -14.00221 | 6832 ft | 298 kts | 114° |
| 2026-04-17 08:53 | 28.88483 | -13.98039 | 6328 ft | 295 kts | 114° |
| 2026-04-17 08:53 | 28.87720 | -13.95870 | 5852 ft | 292 kts | 114° |
| 2026-04-17 08:53 | 28.86969 | -13.93732 | 5372 ft | 289 kts | 114° |
| 2026-04-17 08:53 | 28.86244 | -13.91642 | 4920 ft | 268 kts | 113° |
| 2026-04-17 08:54 | 28.85610 | -13.89782 | 4433 ft | 238 kts | 113° |
| 2026-04-17 08:54 | 28.85030 | -13.88097 | 3926 ft | 219 kts | 113° |
| 2026-04-17 08:54 | 28.84488 | -13.86529 | 3460 ft | 206 kts | 113° |
| 2026-04-17 08:54 | 28.83971 | -13.85053 | 3064 ft | 196 kts | 112° |
| 2026-04-17 08:55 | 28.83469 | -13.83619 | 2665 ft | 194 kts | 112° |
| 2026-04-17 08:55 | 28.83145 | -13.82681 | 2523 ft | 193 kts | 111° |
| 2026-04-17 08:55 | 28.82475 | -13.80741 | 2400 ft | 196 kts | 111° |
| 2026-04-17 08:55 | 28.82155 | -13.79787 | 2386 ft | 194 kts | 111° |
| 2026-04-17 08:56 | 28.81669 | -13.78357 | 2365 ft | 193 kts | 111° |
| 2026-04-17 08:56 | 28.81184 | -13.76936 | 2355 ft | 192 kts | 111° |
| 2026-04-17 08:56 | 28.80693 | -13.75516 | 2352 ft | 193 kts | 111° |
| 2026-04-17 08:56 | 28.80197 | -13.74080 | 2356 ft | 203 kts | 111° |
| 2026-04-17 08:57 | 28.79672 | -13.72550 | 2367 ft | 208 kts | 111° |
| 2026-04-17 08:57 | 28.79490 | -13.70945 | 2353 ft | 209 kts | 78° |
| 2026-04-17 08:57 | 28.80220 | -13.69502 | 2362 ft | 214 kts | 55° |
| 2026-04-17 08:57 | 28.81299 | -13.68330 | 2357 ft | 219 kts | 33° |
| 2026-04-17 08:58 | 28.82656 | -13.67528 | 2358 ft | 218 kts | 33° |
| 2026-04-17 08:58 | 28.83912 | -13.66725 | 2312 ft | 195 kts | 32° |
| 2026-04-17 08:58 | 28.85072 | -13.66033 | 2305 ft | 183 kts | 30° |
| 2026-04-17 08:58 | 28.86226 | -13.65379 | 2095 ft | 188 kts | 29° |
| 2026-04-17 08:59 | 28.87375 | -13.64718 | 1831 ft | 179 kts | 29° |
| 2026-04-17 08:59 | 28.88438 | -13.64102 | 1584 ft | 164 kts | 29° |
| 2026-04-17 08:59 | 28.89403 | -13.63547 | 1370 ft | 146 kts | 28° |
| 2026-04-17 08:59 | 28.90266 | -13.63035 | 1161 ft | 137 kts | 28° |
| 2026-04-17 09:00 | 28.91117 | -13.62531 | 910 ft | 139 kts | 26° |
| 2026-04-17 09:00 | 28.91977 | -13.62024 | 591 ft | 136 kts | 26° |
| 2026-04-17 09:00 | 28.92796 | -13.61547 | 329 ft | 129 kts | 27° |
| 2026-04-17 09:00 | 28.93572 | -13.61090 | 125 ft | 124 kts | 28° |
| 2026-04-17 09:01 | 28.94311 | -13.60662 | 56 ft | 111 kts | 27° |
| 2026-04-17 09:01 | 28.94907 | -13.60314 | 60 ft | 69 kts | 27° |
| 2026-04-17 09:01 | 28.95174 | -13.60211 | 57 ft | 28 kts | 2° |